createdAt,value
2023-05-14T00:01:05.399Z,20.80
2023-05-14T00:03:33.985Z,22.10
2023-05-14T00:06:03.187Z,20.20
2023-05-14T00:08:31.516Z,23.60
2023-05-14T00:11:00.241Z,20.00
2023-05-14T00:13:28.710Z,26.00
2023-05-14T00:15:57.249Z,21.90
2023-05-14T00:18:25.958Z,22.10
2023-05-14T00:20:55.095Z,23.00
2023-05-14T00:23:23.941Z,20.10
2023-05-14T00:25:52.323Z,20.40
2023-05-14T00:28:22.173Z,17.10
2023-05-14T00:30:51.074Z,17.80
2023-05-14T00:33:19.484Z,18.70
2023-05-14T00:35:47.845Z,19.00
2023-05-14T00:38:19.705Z,19.90
2023-05-14T00:40:51.959Z,20.80
2023-05-14T00:43:21.864Z,18.50
2023-05-14T00:45:52.013Z,18.70
2023-05-14T00:48:21.616Z,16.70
2023-05-14T00:50:51.308Z,19.50
2023-05-14T00:53:20.904Z,18.70
2023-05-14T00:55:50.549Z,19.00
2023-05-14T00:58:19.970Z,24.40
2023-05-14T01:00:48.486Z,23.00
2023-05-14T01:03:16.943Z,21.30
2023-05-14T01:06:10.207Z,20.10
2023-05-14T01:08:41.376Z,20.40
2023-05-14T01:11:22.697Z,17.50
2023-05-14T01:14:03.059Z,21.20
2023-05-14T01:16:34.285Z,22.70
2023-05-14T01:19:06.320Z,19.00
2023-05-14T01:21:38.674Z,21.40
2023-05-14T01:24:08.506Z,17.80
2023-05-14T01:26:37.674Z,17.20
2023-05-14T01:29:16.718Z,19.30
2023-05-14T01:31:47.599Z,19.00
2023-05-14T01:34:16.525Z,17.30
2023-05-14T01:36:45.782Z,18.20
2023-05-14T01:39:15.548Z,21.10
2023-05-14T01:41:45.722Z,22.80
2023-05-14T01:44:14.955Z,15.60
2023-05-14T01:46:43.208Z,18.90
2023-05-14T01:49:11.385Z,21.70
2023-05-14T01:51:39.866Z,20.30
2023-05-14T01:54:08.689Z,19.70
2023-05-14T01:56:37.071Z,19.90
2023-05-14T01:59:05.526Z,26.80
2023-05-14T02:01:34.210Z,18.00
2023-05-14T02:04:02.573Z,21.10
2023-05-14T02:06:32.423Z,17.50
2023-05-14T02:09:00.619Z,24.10
2023-05-14T02:11:28.875Z,25.60
2023-05-14T02:13:57.246Z,18.90
2023-05-14T02:16:26.248Z,20.60
2023-05-14T02:18:55.123Z,21.10
2023-05-14T02:21:24.502Z,19.20
2023-05-14T02:23:52.847Z,17.70
2023-05-14T02:26:21.663Z,18.80
2023-05-14T02:28:49.997Z,21.40
2023-05-14T02:31:19.643Z,21.50
2023-05-14T02:33:48.214Z,21.60
2023-05-14T02:36:16.786Z,22.40
2023-05-14T02:38:45.521Z,20.60
2023-05-14T02:41:13.808Z,23.70
2023-05-14T02:43:42.006Z,21.50
2023-05-14T02:46:12.356Z,22.70
2023-05-14T02:48:41.293Z,20.20
2023-05-14T02:51:09.687Z,26.10
2023-05-14T02:53:38.031Z,23.70
2023-05-14T02:56:06.671Z,18.70
2023-05-14T02:58:34.970Z,24.50
2023-05-14T03:01:03.617Z,24.40
2023-05-14T03:03:33.236Z,26.00
2023-05-14T03:06:02.138Z,19.80
2023-05-14T03:08:30.520Z,27.00
2023-05-14T03:10:58.899Z,22.50
2023-05-14T03:13:27.196Z,30.90
2023-05-14T03:15:55.925Z,26.10
2023-05-14T03:18:24.285Z,24.50
2023-05-14T03:20:52.470Z,22.00
2023-05-14T03:23:21.115Z,21.90
2023-05-14T03:25:49.498Z,21.30
2023-05-14T03:28:17.832Z,20.90
2023-05-14T03:30:46.264Z,29.30
2023-05-14T03:33:14.698Z,22.00
2023-05-14T03:35:42.942Z,17.70
2023-05-14T03:38:11.244Z,24.60
2023-05-14T03:40:39.639Z,23.90
2023-05-14T03:43:07.980Z,22.40
2023-05-14T03:45:36.313Z,21.50
2023-05-14T03:48:05.074Z,18.10
2023-05-14T03:50:34.325Z,18.10
2023-05-14T03:53:02.525Z,22.00
2023-05-14T03:55:31.420Z,20.90
2023-05-14T03:57:59.852Z,21.30
2023-05-14T04:00:29.303Z,21.60
2023-05-14T04:02:57.749Z,23.50
2023-05-14T04:05:26.274Z,20.50
2023-05-14T04:07:54.684Z,24.90
2023-05-14T04:10:23.395Z,17.70
2023-05-14T04:12:51.998Z,21.20
2023-05-14T04:15:20.480Z,20.20
2023-05-14T04:17:48.938Z,21.70
2023-05-14T04:20:17.493Z,21.20
2023-05-14T04:22:45.780Z,19.40
2023-05-14T04:25:14.200Z,20.00
2023-05-14T04:27:42.475Z,19.50
2023-05-14T04:30:11.374Z,18.50
2023-05-14T04:36:18.074Z,19.70
2023-05-14T04:38:46.550Z,20.60
2023-05-14T04:41:15.058Z,20.60
2023-05-14T04:43:43.498Z,19.30
2023-05-14T04:46:11.910Z,22.60
2023-05-14T04:48:40.400Z,21.50
2023-05-14T04:51:08.822Z,21.90
2023-05-14T04:53:37.295Z,23.80
2023-05-14T04:56:05.746Z,22.70
2023-05-14T04:58:35.429Z,20.70
2023-05-14T05:01:06.342Z,23.40
2023-05-14T05:03:34.949Z,20.50
2023-05-14T05:06:03.719Z,20.10
2023-05-14T05:08:31.973Z,22.50
2023-05-14T05:11:00.507Z,17.70
2023-05-14T05:13:28.784Z,22.70
2023-05-14T05:15:57.121Z,21.60
2023-05-14T05:18:25.655Z,16.20
2023-05-14T05:20:53.968Z,26.70
2023-05-14T05:23:22.221Z,20.70
2023-05-14T05:25:53.829Z,18.90
2023-05-14T05:28:23.039Z,20.40
2023-05-14T05:30:51.456Z,22.40
2023-05-14T05:33:19.943Z,25.30
2023-05-14T05:35:50.217Z,24.50
2023-05-14T05:38:18.515Z,24.30
2023-05-14T05:40:46.970Z,18.90
2023-05-14T05:43:15.669Z,19.50
2023-05-14T05:45:44.288Z,21.80
2023-05-14T05:48:12.814Z,18.70
2023-05-14T05:50:41.144Z,18.20
2023-05-14T05:53:09.405Z,19.90
2023-05-14T05:55:37.832Z,27.80
2023-05-14T05:58:06.023Z,19.60
2023-05-14T06:00:34.588Z,18.00
2023-05-14T06:03:02.817Z,17.80
2023-05-14T06:05:30.955Z,16.90
2023-05-14T06:07:59.107Z,21.80
2023-05-14T06:10:27.394Z,16.80
2023-05-14T06:12:55.914Z,22.00
2023-05-14T06:15:24.278Z,20.70
2023-05-14T06:17:52.656Z,16.70
2023-05-14T06:20:21.322Z,17.80
2023-05-14T06:22:49.655Z,14.70
2023-05-14T06:25:18.109Z,15.70
2023-05-14T06:27:46.429Z,13.80
2023-05-14T06:30:15.404Z,14.20
2023-05-14T06:32:43.816Z,16.90
2023-05-14T06:35:12.201Z,15.30
2023-05-14T06:37:40.532Z,14.10
2023-05-14T06:40:09.299Z,15.30
2023-05-14T06:42:38.757Z,17.60
2023-05-14T06:45:07.878Z,21.20
2023-05-14T06:47:36.274Z,16.00
2023-05-14T06:50:04.913Z,20.00
2023-05-14T06:52:33.730Z,15.40
2023-05-14T06:55:02.098Z,15.60
2023-05-14T06:57:30.534Z,14.10
2023-05-14T06:59:59.279Z,11.50
2023-05-14T07:02:27.843Z,15.70
2023-05-14T07:04:56.332Z,17.20
2023-05-14T07:07:24.738Z,15.80
2023-05-14T07:09:53.079Z,16.80
2023-05-14T07:12:21.352Z,15.00
2023-05-14T07:14:50.341Z,14.60
2023-05-14T07:17:18.715Z,11.20
2023-05-14T07:19:47.472Z,15.80
2023-05-14T07:22:15.895Z,12.00
2023-05-14T07:24:44.212Z,15.20
2023-05-14T07:27:12.594Z,12.90
2023-05-14T07:29:41.064Z,12.70
2023-05-14T07:32:09.821Z,12.40
2023-05-14T07:34:38.042Z,11.50
2023-05-14T07:37:06.177Z,10.80
2023-05-14T07:39:34.560Z,9.40
2023-05-14T07:42:02.844Z,11.10
2023-05-14T07:44:31.140Z,10.00
2023-05-14T07:46:59.597Z,10.80
2023-05-14T07:49:28.021Z,17.30
2023-05-14T07:51:56.406Z,14.30
2023-05-14T07:54:24.975Z,10.60
2023-05-14T07:56:53.252Z,10.40
2023-05-14T07:59:21.661Z,11.90
2023-05-14T08:01:49.974Z,13.90
2023-05-14T08:04:18.434Z,15.20
2023-05-14T08:06:46.850Z,9.60
2023-05-14T08:09:15.489Z,9.40
2023-05-14T08:11:44.883Z,9.40
2023-05-14T08:14:13.261Z,9.90
2023-05-14T08:16:41.662Z,12.30
2023-05-14T08:19:10.256Z,9.10
2023-05-14T08:21:38.433Z,14.20
2023-05-14T08:24:06.869Z,6.60
2023-05-14T08:26:35.256Z,11.20
2023-05-14T08:29:03.497Z,10.50
2023-05-14T08:31:31.930Z,13.80
2023-05-14T08:34:00.377Z,9.60
2023-05-14T08:36:28.684Z,12.40
2023-05-14T08:38:56.811Z,13.60
2023-05-14T08:41:26.941Z,10.50
2023-05-14T08:44:01.284Z,17.20
2023-05-14T08:46:32.252Z,10.90
2023-05-14T08:49:09.235Z,11.60
2023-05-14T08:51:38.353Z,8.10
2023-05-14T08:54:06.870Z,8.70
2023-05-14T08:56:36.134Z,8.60
2023-05-14T08:59:05.112Z,8.50
2023-05-14T09:01:33.865Z,14.20
2023-05-14T09:04:07.278Z,7.00
2023-05-14T09:06:40.158Z,10.20
2023-05-14T09:09:08.489Z,7.60
2023-05-14T09:11:47.309Z,12.40
2023-05-14T09:14:16.215Z,10.40
2023-05-14T09:16:46.344Z,9.50
2023-05-14T09:19:19.229Z,6.70
2023-05-14T09:21:49.231Z,8.10
2023-05-14T09:24:21.641Z,7.50
2023-05-14T09:26:55.125Z,9.90
2023-05-14T09:29:27.998Z,16.30
2023-05-14T09:31:57.626Z,7.10
2023-05-14T09:34:31.148Z,11.20
2023-05-14T09:37:02.608Z,11.40
2023-05-14T09:39:31.396Z,6.80
2023-05-14T09:41:59.972Z,8.30
2023-05-14T09:44:28.477Z,10.50
2023-05-14T09:46:56.922Z,17.60
2023-05-14T09:49:25.481Z,11.60
2023-05-14T09:51:53.793Z,9.00
2023-05-14T09:54:22.059Z,14.00
2023-05-14T09:56:50.434Z,15.00
2023-05-14T09:59:18.804Z,11.30
2023-05-14T10:01:47.826Z,9.70
2023-05-14T10:04:16.194Z,9.40
2023-05-14T10:06:51.451Z,11.90
2023-05-14T10:09:23.396Z,9.80
2023-05-14T10:11:54.098Z,11.30
2023-05-14T10:14:41.220Z,12.60
2023-05-14T10:17:18.304Z,8.50
2023-05-14T10:19:54.057Z,25.30
2023-05-14T10:22:31.560Z,12.60
2023-05-14T10:25:00.796Z,21.10
2023-05-14T10:27:29.539Z,10.50
2023-05-14T10:29:58.288Z,11.20
2023-05-14T10:32:26.734Z,12.70
2023-05-14T10:34:55.010Z,13.90
2023-05-14T10:37:26.690Z,10.20
2023-05-14T10:39:59.691Z,8.80
2023-05-14T10:42:33.661Z,10.30
2023-05-14T10:45:10.555Z,8.50
2023-05-14T10:47:48.929Z,10.80
2023-05-14T10:50:18.732Z,10.10
2023-05-14T10:52:47.133Z,11.50
2023-05-14T10:55:17.249Z,10.90
2023-05-14T10:57:46.858Z,10.60
2023-05-14T11:00:15.673Z,13.20
2023-05-14T11:02:45.257Z,15.80
2023-05-14T11:05:17.916Z,11.90
2023-05-14T11:07:48.895Z,14.10
2023-05-14T11:10:26.160Z,9.60
2023-05-14T11:12:54.767Z,10.80
2023-05-14T11:15:26.236Z,13.80
2023-05-14T11:17:54.952Z,9.40
2023-05-14T11:20:23.651Z,9.80
2023-05-14T11:22:52.090Z,9.20
2023-05-14T11:25:21.916Z,9.90
2023-05-14T11:27:50.476Z,10.40
2023-05-14T11:30:20.214Z,7.40
2023-05-14T11:32:49.636Z,10.30
2023-05-14T11:35:18.438Z,12.00
2023-05-14T11:37:52.561Z,7.10
2023-05-14T11:40:21.331Z,7.70
2023-05-14T11:42:52.431Z,11.30
2023-05-14T11:45:29.878Z,10.80
2023-05-14T11:47:58.263Z,9.80
2023-05-14T11:50:26.769Z,9.00
2023-05-14T11:53:00.646Z,10.30
2023-05-14T11:55:30.513Z,9.10
2023-05-14T11:57:58.965Z,7.70
2023-05-14T12:00:27.352Z,11.30
2023-05-14T12:02:55.675Z,10.60
2023-05-14T12:05:23.982Z,10.30
2023-05-14T12:07:52.240Z,8.60
2023-05-14T12:10:20.601Z,7.80
2023-05-14T12:12:49.046Z,12.20
2023-05-14T12:15:17.512Z,9.70
2023-05-14T12:17:52.285Z,6.10
2023-05-14T12:20:20.742Z,19.00
2023-05-14T12:22:49.353Z,9.40
2023-05-14T12:25:17.889Z,8.30
2023-05-14T12:27:47.252Z,12.00
2023-05-14T12:32:47.262Z,7.00
2023-05-14T12:35:15.583Z,7.10
2023-05-14T12:37:43.805Z,7.80
2023-05-14T12:40:12.230Z,9.60
2023-05-14T12:42:40.512Z,8.00
2023-05-14T12:45:09.099Z,7.80
2023-05-14T12:47:37.723Z,9.80
2023-05-14T12:50:06.999Z,9.30
2023-05-14T12:55:07.923Z,6.60
2023-05-14T12:57:36.739Z,10.50
2023-05-14T13:00:13.019Z,9.80
2023-05-14T13:02:43.852Z,8.50
2023-05-14T13:05:12.878Z,8.30
2023-05-14T13:07:41.824Z,9.30
2023-05-14T13:10:12.277Z,6.00
2023-05-14T13:12:40.655Z,10.00
2023-05-14T13:15:09.802Z,7.90
2023-05-14T13:17:38.176Z,7.80
2023-05-14T13:20:07.410Z,9.10
2023-05-14T13:22:35.671Z,10.30
2023-05-14T13:25:04.517Z,8.50
2023-05-14T13:27:33.890Z,9.10
2023-05-14T13:30:02.357Z,13.60
2023-05-14T13:32:31.134Z,10.10
2023-05-14T13:34:59.389Z,11.50
2023-05-14T13:37:28.569Z,6.20
2023-05-14T13:39:58.302Z,7.80
2023-05-14T13:42:27.266Z,10.80
2023-05-14T13:44:56.606Z,7.60
2023-05-14T13:47:26.168Z,6.90
2023-05-14T13:49:55.101Z,10.50
2023-05-14T13:52:23.377Z,11.20
2023-05-14T13:54:51.719Z,8.90
2023-05-14T13:57:21.676Z,10.20
2023-05-14T13:59:50.042Z,6.70
2023-05-14T14:02:18.360Z,11.50
2023-05-14T14:04:49.839Z,7.50
2023-05-14T14:07:18.047Z,8.80
2023-05-14T14:09:46.623Z,7.20
2023-05-14T14:12:17.670Z,9.30
2023-05-14T14:14:46.162Z,8.20
2023-05-14T14:17:14.311Z,6.00
2023-05-14T14:19:44.019Z,6.60
2023-05-14T14:22:17.719Z,9.40
2023-05-14T14:24:45.985Z,9.20
2023-05-14T14:27:14.117Z,9.30
2023-05-14T14:29:42.399Z,7.20
2023-05-14T14:32:10.748Z,7.80
2023-05-14T14:34:39.137Z,7.70
2023-05-14T14:37:07.433Z,7.30
2023-05-14T14:39:35.732Z,8.90
2023-05-14T14:42:04.606Z,8.30
2023-05-14T14:44:33.058Z,5.80
2023-05-14T14:47:03.388Z,8.00
2023-05-14T14:49:32.771Z,7.00
2023-05-14T14:52:01.170Z,9.20
2023-05-14T14:54:29.646Z,6.70
2023-05-14T14:56:57.969Z,10.00
2023-05-14T14:59:26.154Z,7.70
2023-05-14T15:01:54.579Z,7.30
2023-05-14T15:04:23.169Z,7.90
2023-05-14T15:06:53.548Z,8.00
2023-05-14T15:09:21.854Z,6.40
2023-05-14T15:11:50.413Z,15.00
2023-05-14T15:14:18.621Z,13.60
2023-05-14T15:16:48.828Z,8.00
2023-05-14T15:19:20.551Z,6.70
2023-05-14T15:21:49.273Z,10.40
2023-05-14T15:24:17.562Z,9.10
2023-05-14T15:26:46.236Z,7.20
2023-05-14T15:29:14.436Z,7.60
2023-05-14T15:31:43.041Z,13.30
2023-05-14T15:34:11.580Z,8.60
2023-05-14T15:36:40.169Z,8.80
2023-05-14T15:39:10.397Z,8.80
2023-05-14T15:41:38.650Z,7.60
2023-05-14T15:44:07.866Z,7.80
2023-05-14T15:46:38.046Z,7.20
2023-05-14T15:49:06.666Z,8.50
2023-05-14T15:51:35.258Z,10.40
2023-05-14T15:54:06.072Z,11.30
2023-05-14T15:56:34.552Z,16.00
2023-05-14T15:59:03.449Z,7.20
2023-05-14T16:01:32.144Z,8.00
2023-05-14T16:04:00.777Z,9.10
2023-05-14T16:06:28.997Z,10.70
2023-05-14T16:08:57.278Z,6.70
2023-05-14T16:11:25.563Z,9.50
2023-05-14T16:13:53.818Z,8.20
2023-05-14T16:16:23.426Z,6.40
2023-05-14T16:18:51.841Z,9.70
2023-05-14T16:21:20.490Z,6.10
2023-05-14T16:23:48.869Z,8.80
2023-05-14T16:26:17.181Z,8.20
2023-05-14T16:28:45.538Z,8.70
2023-05-14T16:31:15.481Z,10.90
2023-05-14T16:33:43.862Z,6.40
2023-05-14T16:36:12.313Z,13.90
2023-05-14T16:38:48.315Z,11.30
2023-05-14T16:41:29.588Z,8.30
2023-05-14T16:43:57.849Z,6.60
2023-05-14T16:46:28.383Z,10.10
2023-05-14T16:48:56.930Z,10.50
2023-05-14T16:51:25.306Z,10.30
2023-05-14T16:53:55.622Z,10.40
2023-05-14T16:56:24.583Z,12.30
2023-05-14T16:58:53.309Z,10.10
2023-05-14T17:01:21.538Z,12.60
2023-05-14T17:03:49.878Z,9.90
2023-05-14T17:06:17.960Z,10.40
2023-05-14T17:08:46.253Z,11.60
2023-05-14T17:11:14.602Z,11.80
2023-05-14T17:13:59.591Z,11.00
2023-05-14T17:16:27.335Z,8.90
2023-05-14T17:18:57.399Z,9.40
2023-05-14T17:21:25.693Z,12.30
2023-05-14T17:23:53.946Z,12.90
2023-05-14T17:26:24.231Z,9.60
2023-05-14T17:28:52.809Z,13.20
2023-05-14T17:31:22.557Z,14.00
2023-05-14T17:33:50.946Z,14.00
2023-05-14T17:36:19.203Z,10.90
2023-05-14T17:38:47.543Z,12.60
2023-05-14T17:41:17.944Z,12.00
2023-05-14T17:43:46.242Z,12.00
2023-05-14T17:46:14.618Z,11.60
2023-05-14T17:48:43.188Z,12.00
2023-05-14T17:51:11.662Z,13.30
2023-05-14T17:53:39.980Z,11.20
2023-05-14T17:56:08.332Z,12.60
2023-05-14T17:58:38.325Z,13.10
2023-05-14T18:01:06.907Z,13.00
2023-05-14T18:03:35.308Z,14.00
2023-05-14T18:06:03.881Z,13.80
2023-05-14T18:08:34.634Z,12.60
2023-05-14T18:11:03.146Z,14.40
2023-05-14T18:13:31.439Z,13.70
2023-05-14T18:16:01.357Z,14.20
2023-05-14T18:18:29.898Z,15.80
2023-05-14T18:20:58.622Z,19.40
2023-05-14T18:23:27.596Z,17.50
2023-05-14T18:25:57.622Z,13.30
2023-05-14T18:28:26.729Z,14.00
2023-05-14T18:30:55.113Z,16.00
2023-05-14T18:33:23.489Z,11.30
2023-05-14T18:35:51.845Z,13.50
2023-05-14T18:38:20.139Z,12.20
2023-05-14T18:40:49.578Z,11.50
2023-05-14T18:43:19.807Z,11.90
2023-05-14T18:45:48.460Z,17.90
2023-05-14T18:48:16.977Z,11.20
2023-05-14T18:50:45.467Z,12.50
2023-05-14T18:53:13.796Z,15.10
2023-05-14T18:55:42.351Z,12.50
2023-05-14T18:58:10.676Z,15.40
2023-05-14T19:00:39.015Z,10.60
2023-05-14T19:03:08.273Z,15.80
2023-05-14T19:05:36.768Z,14.40
2023-05-14T19:08:06.068Z,13.70
2023-05-14T19:10:35.036Z,11.60
2023-05-14T19:13:03.680Z,10.20
2023-05-14T19:15:32.652Z,15.90
2023-05-14T19:18:01.551Z,12.20
2023-05-14T19:20:29.886Z,11.50
2023-05-14T19:22:58.068Z,12.40
2023-05-14T19:25:26.953Z,10.40
2023-05-14T19:27:57.165Z,10.90
2023-05-14T19:30:25.798Z,11.30
2023-05-14T19:32:54.281Z,9.50
2023-05-14T19:35:23.078Z,16.60
2023-05-14T19:37:51.555Z,10.40
2023-05-14T19:40:19.801Z,13.50
2023-05-14T19:42:48.373Z,7.80
2023-05-14T19:45:17.093Z,10.40
2023-05-14T19:47:45.766Z,9.70
2023-05-14T19:50:14.231Z,8.60
2023-05-14T19:52:42.751Z,9.40
2023-05-14T19:55:11.040Z,9.10
2023-05-14T19:57:50.617Z,8.90
2023-05-14T20:00:26.883Z,11.50
2023-05-14T20:05:34.013Z,11.90
2023-05-14T20:08:09.810Z,6.90
2023-05-14T20:10:41.592Z,12.90
2023-05-14T20:13:09.862Z,8.80
2023-05-14T20:15:39.578Z,8.10
2023-05-14T20:18:08.078Z,10.60
2023-05-14T20:20:36.923Z,10.60
2023-05-14T20:23:05.207Z,13.70
2023-05-14T20:25:33.713Z,10.40
2023-05-14T20:28:02.105Z,10.10
2023-05-14T20:30:30.442Z,10.80
2023-05-14T20:32:59.054Z,14.20
2023-05-14T20:35:27.654Z,12.80
2023-05-14T20:37:56.547Z,12.70
2023-05-14T20:40:25.691Z,13.50
2023-05-14T20:42:53.991Z,12.50
2023-05-14T20:45:22.204Z,11.60
2023-05-14T20:47:50.702Z,11.70
2023-05-14T20:50:19.220Z,12.10
2023-05-14T20:52:47.456Z,15.80
2023-05-14T20:55:15.767Z,11.70
2023-05-14T20:57:44.148Z,13.30
2023-05-14T21:02:41.809Z,14.40
2023-05-14T21:05:10.735Z,13.60
2023-05-14T21:07:39.629Z,13.00
2023-05-14T21:10:10.008Z,13.40
2023-05-14T21:12:38.324Z,11.80
2023-05-14T21:15:07.548Z,14.10
2023-05-14T21:17:35.704Z,12.80
2023-05-14T21:20:04.173Z,14.50
2023-05-14T21:22:32.546Z,17.20
2023-05-14T21:25:00.841Z,14.80
2023-05-14T21:27:29.024Z,13.20
2023-05-14T21:29:57.506Z,13.90
2023-05-14T21:32:26.056Z,11.50
2023-05-14T21:34:54.674Z,12.20
2023-05-14T21:37:23.254Z,12.40
2023-05-14T21:39:51.634Z,11.60
2023-05-14T21:42:21.141Z,17.20
2023-05-14T21:44:49.737Z,14.60
2023-05-14T21:47:18.397Z,11.40
2023-05-14T21:49:46.580Z,11.00
2023-05-14T21:52:14.859Z,11.80
2023-05-14T21:54:43.346Z,12.50
2023-05-14T21:57:11.922Z,10.30
2023-05-14T21:59:40.504Z,10.80
2023-05-14T22:02:08.707Z,12.40
2023-05-14T22:04:36.963Z,10.90
2023-05-14T22:07:05.441Z,9.20
2023-05-14T22:09:38.233Z,11.10
2023-05-14T22:12:07.505Z,9.80
2023-05-14T22:14:36.003Z,11.50
2023-05-14T22:17:05.713Z,12.50
2023-05-14T22:23:11.599Z,10.10
2023-05-14T22:25:39.956Z,9.00
2023-05-14T22:28:08.758Z,10.00
2023-05-14T22:30:39.382Z,11.10
2023-05-14T22:33:17.320Z,9.70
2023-05-14T22:35:45.813Z,11.20
2023-05-14T22:38:14.466Z,9.20
2023-05-14T22:40:42.838Z,10.20
2023-05-14T22:43:11.019Z,11.80
2023-05-14T22:45:39.490Z,8.90
2023-05-14T22:48:08.087Z,8.80
2023-05-14T22:50:37.463Z,8.20
2023-05-14T22:53:05.951Z,9.80
2023-05-14T22:55:34.826Z,8.50
2023-05-14T22:58:03.563Z,16.80
2023-05-14T23:00:31.897Z,8.40
2023-05-14T23:03:00.186Z,9.50
2023-05-14T23:05:28.875Z,10.40
2023-05-14T23:07:57.302Z,8.10
2023-05-14T23:10:25.957Z,10.70
2023-05-14T23:12:54.611Z,11.30
2023-05-14T23:15:25.265Z,10.90
2023-05-14T23:17:53.790Z,10.10
2023-05-14T23:20:22.242Z,9.40
2023-05-14T23:22:50.489Z,9.20
2023-05-14T23:25:18.892Z,9.70
2023-05-14T23:27:48.163Z,8.90
2023-05-14T23:30:16.886Z,8.00
2023-05-14T23:32:45.150Z,10.40
2023-05-14T23:35:14.000Z,8.90
2023-05-14T23:37:49.681Z,10.00
2023-05-14T23:40:18.648Z,10.80
2023-05-14T23:42:47.235Z,6.80
2023-05-14T23:45:15.699Z,8.20
2023-05-14T23:47:44.108Z,7.60
2023-05-14T23:50:12.529Z,7.30
2023-05-14T23:52:40.811Z,7.70
2023-05-14T23:55:09.796Z,6.90
2023-05-14T23:57:38.321Z,7.00
